sensor_id;sensor_type;location;lat;lon;timestamp;P1;durP1;ratioP1;P2;durP2;ratioP2
11614;SDS011;5863;52.832;4.758;2023-08-12T00:01:45;11.32;;;4.15;;
11614;SDS011;5863;52.832;4.758;2023-08-12T00:04:12;9.20;;;3.72;;
11614;SDS011;5863;52.832;4.758;2023-08-12T00:06:39;8.38;;;3.83;;
11614;SDS011;5863;52.832;4.758;2023-08-12T00:09:06;10.40;;;3.95;;
11614;SDS011;5863;52.832;4.758;2023-08-12T00:11:35;9.40;;;4.00;;
11614;SDS011;5863;52.832;4.758;2023-08-12T00:14:02;8.50;;;3.30;;
11614;SDS011;5863;52.832;4.758;2023-08-12T00:16:29;10.43;;;3.63;;
11614;SDS011;5863;52.832;4.758;2023-08-12T00:18:56;9.75;;;3.28;;
11614;SDS011;5863;52.832;4.758;2023-08-12T00:21:23;8.93;;;3.58;;
11614;SDS011;5863;52.832;4.758;2023-08-12T00:23:51;7.43;;;3.40;;
11614;SDS011;5863;52.832;4.758;2023-08-12T00:26:17;9.05;;;3.70;;
11614;SDS011;5863;52.832;4.758;2023-08-12T00:28:48;9.88;;;3.63;;
11614;SDS011;5863;52.832;4.758;2023-08-12T00:31:14;8.60;;;3.58;;
11614;SDS011;5863;52.832;4.758;2023-08-12T00:33:41;9.85;;;3.42;;
11614;SDS011;5863;52.832;4.758;2023-08-12T00:36:08;10.05;;;3.90;;
11614;SDS011;5863;52.832;4.758;2023-08-12T00:38:34;10.10;;;3.80;;
11614;SDS011;5863;52.832;4.758;2023-08-12T00:41:01;8.65;;;3.67;;
11614;SDS011;5863;52.832;4.758;2023-08-12T00:43:28;7.05;;;3.60;;
11614;SDS011;5863;52.832;4.758;2023-08-12T00:45:56;8.23;;;3.50;;
11614;SDS011;5863;52.832;4.758;2023-08-12T00:48:23;9.60;;;3.20;;
11614;SDS011;5863;52.832;4.758;2023-08-12T00:50:50;8.07;;;3.55;;
11614;SDS011;5863;52.832;4.758;2023-08-12T00:53:17;9.48;;;3.20;;
11614;SDS011;5863;52.832;4.758;2023-08-12T00:55:44;9.00;;;3.00;;
11614;SDS011;5863;52.832;4.758;2023-08-12T00:58:10;10.35;;;3.53;;
11614;SDS011;5863;52.832;4.758;2023-08-12T01:00:37;8.73;;;3.22;;
11614;SDS011;5863;52.832;4.758;2023-08-12T01:03:08;10.20;;;3.67;;
11614;SDS011;5863;52.832;4.758;2023-08-12T01:05:35;8.18;;;3.28;;
11614;SDS011;5863;52.832;4.758;2023-08-12T01:08:02;8.30;;;3.47;;
11614;SDS011;5863;52.832;4.758;2023-08-12T01:10:30;9.18;;;3.40;;
11614;SDS011;5863;52.832;4.758;2023-08-12T01:13:03;8.52;;;3.70;;
11614;SDS011;5863;52.832;4.758;2023-08-12T01:15:37;7.43;;;3.10;;
11614;SDS011;5863;52.832;4.758;2023-08-12T01:18:06;11.35;;;3.63;;
11614;SDS011;5863;52.832;4.758;2023-08-12T01:20:34;7.57;;;3.63;;
11614;SDS011;5863;52.832;4.758;2023-08-12T01:23:10;9.13;;;3.20;;
11614;SDS011;5863;52.832;4.758;2023-08-12T01:25:38;11.15;;;3.58;;
11614;SDS011;5863;52.832;4.758;2023-08-12T01:28:05;9.80;;;3.35;;
11614;SDS011;5863;52.832;4.758;2023-08-12T01:30:32;7.82;;;3.58;;
11614;SDS011;5863;52.832;4.758;2023-08-12T01:33:03;10.25;;;3.13;;
11614;SDS011;5863;52.832;4.758;2023-08-12T01:35:36;8.13;;;3.20;;
11614;SDS011;5863;52.832;4.758;2023-08-12T01:38:08;6.78;;;3.22;;
11614;SDS011;5863;52.832;4.758;2023-08-12T01:40:36;6.32;;;3.22;;
11614;SDS011;5863;52.832;4.758;2023-08-12T01:43:05;9.52;;;3.28;;
11614;SDS011;5863;52.832;4.758;2023-08-12T01:45:33;7.30;;;3.33;;
11614;SDS011;5863;52.832;4.758;2023-08-12T01:48:00;8.00;;;3.20;;
11614;SDS011;5863;52.832;4.758;2023-08-12T01:50:27;7.53;;;3.05;;
11614;SDS011;5863;52.832;4.758;2023-08-12T01:52:54;7.95;;;3.22;;
11614;SDS011;5863;52.832;4.758;2023-08-12T01:55:22;6.18;;;2.67;;
11614;SDS011;5863;52.832;4.758;2023-08-12T01:57:49;9.57;;;3.50;;
11614;SDS011;5863;52.832;4.758;2023-08-12T02:00:15;6.70;;;3.08;;
11614;SDS011;5863;52.832;4.758;2023-08-12T02:02:42;7.63;;;3.30;;
11614;SDS011;5863;52.832;4.758;2023-08-12T02:05:11;4.80;;;2.70;;
11614;SDS011;5863;52.832;4.758;2023-08-12T02:07:37;5.90;;;3.25;;
11614;SDS011;5863;52.832;4.758;2023-08-12T02:10:04;7.05;;;3.20;;
11614;SDS011;5863;52.832;4.758;2023-08-12T02:12:33;4.43;;;2.42;;
11614;SDS011;5863;52.832;4.758;2023-08-12T02:15:00;9.88;;;3.00;;
11614;SDS011;5863;52.832;4.758;2023-08-12T02:17:26;7.07;;;3.30;;
11614;SDS011;5863;52.832;4.758;2023-08-12T02:19:53;7.45;;;2.70;;
11614;SDS011;5863;52.832;4.758;2023-08-12T02:22:19;8.07;;;3.38;;
11614;SDS011;5863;52.832;4.758;2023-08-12T02:24:47;11.88;;;3.67;;
11614;SDS011;5863;52.832;4.758;2023-08-12T02:27:14;6.63;;;3.47;;
11614;SDS011;5863;52.832;4.758;2023-08-12T02:29:42;6.65;;;3.38;;
11614;SDS011;5863;52.832;4.758;2023-08-12T02:32:08;9.05;;;4.15;;
11614;SDS011;5863;52.832;4.758;2023-08-12T02:34:35;6.30;;;3.33;;
11614;SDS011;5863;52.832;4.758;2023-08-12T02:37:02;4.80;;;3.15;;
11614;SDS011;5863;52.832;4.758;2023-08-12T02:39:28;6.55;;;3.90;;
11614;SDS011;5863;52.832;4.758;2023-08-12T02:41:55;6.50;;;3.63;;
11614;SDS011;5863;52.832;4.758;2023-08-12T02:44:22;7.00;;;4.10;;
11614;SDS011;5863;52.832;4.758;2023-08-12T02:46:50;5.80;;;3.60;;
11614;SDS011;5863;52.832;4.758;2023-08-12T02:49:16;6.70;;;3.47;;
11614;SDS011;5863;52.832;4.758;2023-08-12T02:51:43;8.60;;;3.65;;
11614;SDS011;5863;52.832;4.758;2023-08-12T02:54:09;5.63;;;3.50;;
11614;SDS011;5863;52.832;4.758;2023-08-12T02:56:36;7.60;;;3.40;;
11614;SDS011;5863;52.832;4.758;2023-08-12T02:59:03;6.93;;;3.75;;
11614;SDS011;5863;52.832;4.758;2023-08-12T03:01:30;11.13;;;3.63;;
11614;SDS011;5863;52.832;4.758;2023-08-12T03:03:58;8.95;;;3.90;;
11614;SDS011;5863;52.832;4.758;2023-08-12T03:06:25;8.15;;;3.80;;
11614;SDS011;5863;52.832;4.758;2023-08-12T03:08:51;10.02;;;3.33;;
11614;SDS011;5863;52.832;4.758;2023-08-12T03:11:18;6.10;;;3.63;;
11614;SDS011;5863;52.832;4.758;2023-08-12T03:13:45;6.97;;;3.67;;
11614;SDS011;5863;52.832;4.758;2023-08-12T03:16:11;7.70;;;3.40;;
11614;SDS011;5863;52.832;4.758;2023-08-12T03:18:39;6.25;;;3.38;;
11614;SDS011;5863;52.832;4.758;2023-08-12T03:21:07;7.63;;;3.50;;
11614;SDS011;5863;52.832;4.758;2023-08-12T03:23:35;8.98;;;3.75;;
11614;SDS011;5863;52.832;4.758;2023-08-12T03:26:02;8.35;;;3.72;;
11614;SDS011;5863;52.832;4.758;2023-08-12T03:28:29;6.80;;;3.67;;
11614;SDS011;5863;52.832;4.758;2023-08-12T03:30:55;6.28;;;3.80;;
11614;SDS011;5863;52.832;4.758;2023-08-12T03:33:22;9.63;;;4.00;;
11614;SDS011;5863;52.832;4.758;2023-08-12T03:35:49;9.23;;;3.70;;
11614;SDS011;5863;52.832;4.758;2023-08-12T03:38:17;7.50;;;3.70;;
11614;SDS011;5863;52.832;4.758;2023-08-12T03:40:44;9.75;;;4.35;;
11614;SDS011;5863;52.832;4.758;2023-08-12T03:43:10;7.15;;;3.97;;
11614;SDS011;5863;52.832;4.758;2023-08-12T03:45:39;8.77;;;4.32;;
11614;SDS011;5863;52.832;4.758;2023-08-12T03:48:07;8.75;;;3.88;;
11614;SDS011;5863;52.832;4.758;2023-08-12T03:50:33;7.93;;;3.60;;
11614;SDS011;5863;52.832;4.758;2023-08-12T03:53:00;8.20;;;3.92;;
11614;SDS011;5863;52.832;4.758;2023-08-12T03:55:29;8.43;;;3.78;;
11614;SDS011;5863;52.832;4.758;2023-08-12T03:57:56;9.10;;;4.10;;
11614;SDS011;5863;52.832;4.758;2023-08-12T04:00:23;6.70;;;3.92;;
11614;SDS011;5863;52.832;4.758;2023-08-12T04:02:50;10.88;;;4.07;;
11614;SDS011;5863;52.832;4.758;2023-08-12T04:05:17;6.95;;;4.30;;
11614;SDS011;5863;52.832;4.758;2023-08-12T04:07:43;7.93;;;4.40;;
11614;SDS011;5863;52.832;4.758;2023-08-12T04:10:10;6.72;;;4.47;;
11614;SDS011;5863;52.832;4.758;2023-08-12T04:12:39;7.57;;;4.43;;
11614;SDS011;5863;52.832;4.758;2023-08-12T04:15:07;6.80;;;4.25;;
11614;SDS011;5863;52.832;4.758;2023-08-12T04:17:34;8.02;;;4.22;;
11614;SDS011;5863;52.832;4.758;2023-08-12T04:20:01;9.95;;;4.70;;
11614;SDS011;5863;52.832;4.758;2023-08-12T04:22:30;6.03;;;4.25;;
11614;SDS011;5863;52.832;4.758;2023-08-12T04:24:57;7.80;;;4.75;;
11614;SDS011;5863;52.832;4.758;2023-08-12T04:27:24;9.15;;;4.55;;
11614;SDS011;5863;52.832;4.758;2023-08-12T04:29:52;5.70;;;4.45;;
11614;SDS011;5863;52.832;4.758;2023-08-12T04:32:18;5.90;;;4.88;;
11614;SDS011;5863;52.832;4.758;2023-08-12T04:34:45;9.50;;;4.40;;
11614;SDS011;5863;52.832;4.758;2023-08-12T04:37:12;5.40;;;4.20;;
11614;SDS011;5863;52.832;4.758;2023-08-12T04:39:39;8.40;;;4.60;;
11614;SDS011;5863;52.832;4.758;2023-08-12T04:42:05;8.50;;;5.03;;
11614;SDS011;5863;52.832;4.758;2023-08-12T04:44:32;8.13;;;4.53;;
11614;SDS011;5863;52.832;4.758;2023-08-12T04:47:00;10.90;;;5.18;;
11614;SDS011;5863;52.832;4.758;2023-08-12T04:49:28;10.98;;;4.75;;
11614;SDS011;5863;52.832;4.758;2023-08-12T04:51:55;8.15;;;4.72;;
11614;SDS011;5863;52.832;4.758;2023-08-12T04:54:21;10.93;;;4.90;;
11614;SDS011;5863;52.832;4.758;2023-08-12T04:56:48;9.60;;;5.22;;
11614;SDS011;5863;52.832;4.758;2023-08-12T04:59:15;9.35;;;4.50;;
11614;SDS011;5863;52.832;4.758;2023-08-12T05:01:41;7.53;;;4.88;;
11614;SDS011;5863;52.832;4.758;2023-08-12T05:04:09;9.80;;;5.10;;
11614;SDS011;5863;52.832;4.758;2023-08-12T05:06:36;9.68;;;4.90;;
11614;SDS011;5863;52.832;4.758;2023-08-12T05:09:02;6.10;;;4.63;;
11614;SDS011;5863;52.832;4.758;2023-08-12T05:11:30;6.28;;;4.65;;
11614;SDS011;5863;52.832;4.758;2023-08-12T05:13:57;9.70;;;5.50;;
11614;SDS011;5863;52.832;4.758;2023-08-12T05:16:24;6.80;;;5.05;;
11614;SDS011;5863;52.832;4.758;2023-08-12T05:18:50;7.43;;;5.30;;
11614;SDS011;5863;52.832;4.758;2023-08-12T05:21:18;12.10;;;5.70;;
11614;SDS011;5863;52.832;4.758;2023-08-12T05:23:45;7.85;;;5.72;;
11614;SDS011;5863;52.832;4.758;2023-08-12T05:26:12;10.43;;;5.25;;
11614;SDS011;5863;52.832;4.758;2023-08-12T05:28:39;9.95;;;5.32;;
11614;SDS011;5863;52.832;4.758;2023-08-12T05:31:05;7.47;;;5.32;;
11614;SDS011;5863;52.832;4.758;2023-08-12T05:33:32;8.75;;;5.47;;
11614;SDS011;5863;52.832;4.758;2023-08-12T05:35:59;11.55;;;5.40;;
11614;SDS011;5863;52.832;4.758;2023-08-12T05:38:27;9.90;;;5.20;;
11614;SDS011;5863;52.832;4.758;2023-08-12T05:40:53;10.48;;;5.53;;
11614;SDS011;5863;52.832;4.758;2023-08-12T05:43:20;10.43;;;6.20;;
11614;SDS011;5863;52.832;4.758;2023-08-12T05:45:47;9.27;;;5.80;;
11614;SDS011;5863;52.832;4.758;2023-08-12T05:48:14;9.68;;;5.47;;
11614;SDS011;5863;52.832;4.758;2023-08-12T05:50:41;12.00;;;5.97;;
11614;SDS011;5863;52.832;4.758;2023-08-12T05:53:07;12.85;;;6.35;;
11614;SDS011;5863;52.832;4.758;2023-08-12T05:55:35;7.75;;;5.93;;
11614;SDS011;5863;52.832;4.758;2023-08-12T05:58:02;8.70;;;6.63;;
11614;SDS011;5863;52.832;4.758;2023-08-12T06:00:29;11.27;;;5.93;;
11614;SDS011;5863;52.832;4.758;2023-08-12T06:02:56;14.13;;;6.53;;
11614;SDS011;5863;52.832;4.758;2023-08-12T06:05:23;10.80;;;6.40;;
11614;SDS011;5863;52.832;4.758;2023-08-12T06:07:49;11.05;;;6.38;;
11614;SDS011;5863;52.832;4.758;2023-08-12T06:10:16;12.65;;;6.60;;
11614;SDS011;5863;52.832;4.758;2023-08-12T06:12:44;11.95;;;7.15;;
11614;SDS011;5863;52.832;4.758;2023-08-12T06:15:11;10.63;;;7.22;;
11614;SDS011;5863;52.832;4.758;2023-08-12T06:17:37;12.15;;;7.28;;
11614;SDS011;5863;52.832;4.758;2023-08-12T06:20:04;14.27;;;7.03;;
11614;SDS011;5863;52.832;4.758;2023-08-12T06:22:32;12.73;;;7.80;;
11614;SDS011;5863;52.832;4.758;2023-08-12T06:24:58;12.48;;;8.38;;
11614;SDS011;5863;52.832;4.758;2023-08-12T06:27:25;12.95;;;8.50;;
11614;SDS011;5863;52.832;4.758;2023-08-12T06:29:54;12.18;;;7.80;;
11614;SDS011;5863;52.832;4.758;2023-08-12T06:32:20;12.80;;;7.63;;
11614;SDS011;5863;52.832;4.758;2023-08-12T06:34:47;10.15;;;7.97;;
11614;SDS011;5863;52.832;4.758;2023-08-12T06:37:14;11.10;;;7.28;;
11614;SDS011;5863;52.832;4.758;2023-08-12T06:39:40;13.35;;;8.02;;
11614;SDS011;5863;52.832;4.758;2023-08-12T06:42:07;12.77;;;8.63;;
11614;SDS011;5863;52.832;4.758;2023-08-12T06:44:34;13.05;;;8.85;;
11614;SDS011;5863;52.832;4.758;2023-08-12T06:47:02;14.30;;;9.85;;
11614;SDS011;5863;52.832;4.758;2023-08-12T06:49:28;13.48;;;9.43;;
11614;SDS011;5863;52.832;4.758;2023-08-12T06:51:55;13.20;;;9.45;;
11614;SDS011;5863;52.832;4.758;2023-08-12T06:54:22;15.95;;;10.10;;
11614;SDS011;5863;52.832;4.758;2023-08-12T06:56:49;15.43;;;9.40;;
11614;SDS011;5863;52.832;4.758;2023-08-12T06:59:16;13.57;;;7.88;;
11614;SDS011;5863;52.832;4.758;2023-08-12T07:01:43;11.43;;;7.28;;
11614;SDS011;5863;52.832;4.758;2023-08-12T07:04:11;10.45;;;6.43;;
11614;SDS011;5863;52.832;4.758;2023-08-12T07:06:37;9.88;;;5.00;;
11614;SDS011;5863;52.832;4.758;2023-08-12T07:09:04;8.00;;;4.38;;
11614;SDS011;5863;52.832;4.758;2023-08-12T07:11:31;9.73;;;4.47;;
11614;SDS011;5863;52.832;4.758;2023-08-12T07:13:58;6.75;;;3.00;;
11614;SDS011;5863;52.832;4.758;2023-08-12T07:16:24;4.03;;;2.67;;
11614;SDS011;5863;52.832;4.758;2023-08-12T07:18:51;4.97;;;2.45;;
11614;SDS011;5863;52.832;4.758;2023-08-12T07:21:20;5.95;;;2.25;;
11614;SDS011;5863;52.832;4.758;2023-08-12T07:23:48;7.80;;;2.45;;
11614;SDS011;5863;52.832;4.758;2023-08-12T07:26:14;5.03;;;2.25;;
11614;SDS011;5863;52.832;4.758;2023-08-12T07:28:41;4.75;;;2.20;;
11614;SDS011;5863;52.832;4.758;2023-08-12T07:31:08;4.65;;;2.10;;
11614;SDS011;5863;52.832;4.758;2023-08-12T07:33:34;5.82;;;1.92;;
11614;SDS011;5863;52.832;4.758;2023-08-12T07:36:01;4.65;;;1.83;;
11614;SDS011;5863;52.832;4.758;2023-08-12T07:38:30;5.38;;;1.85;;
11614;SDS011;5863;52.832;4.758;2023-08-12T07:40:57;9.13;;;2.58;;
11614;SDS011;5863;52.832;4.758;2023-08-12T07:43:24;4.18;;;1.90;;
11614;SDS011;5863;52.832;4.758;2023-08-12T07:45:50;4.88;;;1.80;;
11614;SDS011;5863;52.832;4.758;2023-08-12T07:48:18;6.07;;;1.80;;
11614;SDS011;5863;52.832;4.758;2023-08-12T07:50:45;3.95;;;1.88;;
11614;SDS011;5863;52.832;4.758;2023-08-12T07:53:13;4.53;;;1.80;;
11614;SDS011;5863;52.832;4.758;2023-08-12T07:55:42;6.88;;;2.20;;
11614;SDS011;5863;52.832;4.758;2023-08-12T07:58:09;6.68;;;1.92;;
11614;SDS011;5863;52.832;4.758;2023-08-12T08:00:35;7.85;;;1.70;;
11614;SDS011;5863;52.832;4.758;2023-08-12T08:03:02;5.20;;;2.03;;
11614;SDS011;5863;52.832;4.758;2023-08-12T08:05:29;4.65;;;2.38;;
11614;SDS011;5863;52.832;4.758;2023-08-12T08:07:56;6.82;;;2.22;;
11614;SDS011;5863;52.832;4.758;2023-08-12T08:10:23;6.85;;;2.08;;
11614;SDS011;5863;52.832;4.758;2023-08-12T08:12:51;9.02;;;2.70;;
11614;SDS011;5863;52.832;4.758;2023-08-12T08:15:18;6.85;;;2.13;;
11614;SDS011;5863;52.832;4.758;2023-08-12T08:17:45;7.53;;;2.30;;
11614;SDS011;5863;52.832;4.758;2023-08-12T08:20:11;6.63;;;2.70;;
11614;SDS011;5863;52.832;4.758;2023-08-12T08:22:38;6.53;;;2.22;;
11614;SDS011;5863;52.832;4.758;2023-08-12T08:25:05;6.68;;;2.60;;
11614;SDS011;5863;52.832;4.758;2023-08-12T08:27:33;10.52;;;2.78;;
11614;SDS011;5863;52.832;4.758;2023-08-12T08:30:01;10.82;;;2.65;;
11614;SDS011;5863;52.832;4.758;2023-08-12T08:32:28;10.75;;;2.70;;
11614;SDS011;5863;52.832;4.758;2023-08-12T08:34:55;9.35;;;3.00;;
11614;SDS011;5863;52.832;4.758;2023-08-12T08:37:22;8.85;;;2.85;;
11614;SDS011;5863;52.832;4.758;2023-08-12T08:39:48;9.10;;;2.92;;
11614;SDS011;5863;52.832;4.758;2023-08-12T08:42:15;10.48;;;3.03;;
11614;SDS011;5863;52.832;4.758;2023-08-12T08:44:45;8.70;;;2.90;;
11614;SDS011;5863;52.832;4.758;2023-08-12T08:47:19;10.60;;;2.60;;
11614;SDS011;5863;52.832;4.758;2023-08-12T08:49:51;8.90;;;2.70;;
11614;SDS011;5863;52.832;4.758;2023-08-12T08:52:20;10.02;;;2.38;;
11614;SDS011;5863;52.832;4.758;2023-08-12T08:54:48;9.00;;;2.30;;
11614;SDS011;5863;52.832;4.758;2023-08-12T08:57:15;5.57;;;2.30;;
11614;SDS011;5863;52.832;4.758;2023-08-12T08:59:42;6.45;;;2.35;;
11614;SDS011;5863;52.832;4.758;2023-08-12T09:02:10;9.00;;;2.40;;
11614;SDS011;5863;52.832;4.758;2023-08-12T09:04:42;9.43;;;2.72;;
11614;SDS011;5863;52.832;4.758;2023-08-12T09:07:10;8.05;;;2.30;;
11614;SDS011;5863;52.832;4.758;2023-08-12T09:09:39;11.40;;;2.50;;
11614;SDS011;5863;52.832;4.758;2023-08-12T09:12:08;13.73;;;3.40;;
11614;SDS011;5863;52.832;4.758;2023-08-12T09:14:37;9.48;;;2.70;;
11614;SDS011;5863;52.832;4.758;2023-08-12T09:17:04;8.75;;;2.45;;
11614;SDS011;5863;52.832;4.758;2023-08-12T09:19:31;5.88;;;2.15;;
11614;SDS011;5863;52.832;4.758;2023-08-12T09:21:59;7.40;;;2.03;;
11614;SDS011;5863;52.832;4.758;2023-08-12T09:24:26;8.35;;;2.47;;
11614;SDS011;5863;52.832;4.758;2023-08-12T09:26:55;5.60;;;2.00;;
11614;SDS011;5863;52.832;4.758;2023-08-12T09:29:22;6.93;;;2.20;;
11614;SDS011;5863;52.832;4.758;2023-08-12T09:31:49;9.68;;;2.10;;
11614;SDS011;5863;52.832;4.758;2023-08-12T09:34:16;6.47;;;2.17;;
11614;SDS011;5863;52.832;4.758;2023-08-12T09:36:44;4.45;;;2.00;;
11614;SDS011;5863;52.832;4.758;2023-08-12T09:39:12;6.38;;;2.28;;
11614;SDS011;5863;52.832;4.758;2023-08-12T09:41:39;4.28;;;2.20;;
11614;SDS011;5863;52.832;4.758;2023-08-12T09:44:06;6.85;;;1.95;;
11614;SDS011;5863;52.832;4.758;2023-08-12T09:46:33;6.78;;;2.20;;
11614;SDS011;5863;52.832;4.758;2023-08-12T09:48:59;7.32;;;2.13;;
11614;SDS011;5863;52.832;4.758;2023-08-12T09:51:26;5.03;;;2.17;;
11614;SDS011;5863;52.832;4.758;2023-08-12T09:53:53;3.95;;;2.25;;
11614;SDS011;5863;52.832;4.758;2023-08-12T09:56:22;6.05;;;2.22;;
11614;SDS011;5863;52.832;4.758;2023-08-12T09:58:49;6.55;;;2.25;;
11614;SDS011;5863;52.832;4.758;2023-08-12T10:01:19;8.00;;;2.60;;
11614;SDS011;5863;52.832;4.758;2023-08-12T10:03:47;7.45;;;2.33;;
11614;SDS011;5863;52.832;4.758;2023-08-12T10:06:16;6.85;;;2.17;;
11614;SDS011;5863;52.832;4.758;2023-08-12T10:08:43;4.40;;;1.92;;
11614;SDS011;5863;52.832;4.758;2023-08-12T10:11:13;8.57;;;2.22;;
11614;SDS011;5863;52.832;4.758;2023-08-12T10:13:41;7.05;;;2.65;;
11614;SDS011;5863;52.832;4.758;2023-08-12T10:16:08;8.75;;;2.80;;
11614;SDS011;5863;52.832;4.758;2023-08-12T10:18:36;5.65;;;2.08;;
11614;SDS011;5863;52.832;4.758;2023-08-12T10:21:05;9.10;;;2.60;;
11614;SDS011;5863;52.832;4.758;2023-08-12T10:23:34;8.30;;;2.30;;
11614;SDS011;5863;52.832;4.758;2023-08-12T10:26:01;5.28;;;2.17;;
11614;SDS011;5863;52.832;4.758;2023-08-12T10:28:31;6.13;;;2.40;;
11614;SDS011;5863;52.832;4.758;2023-08-12T10:31:03;10.88;;;2.85;;
11614;SDS011;5863;52.832;4.758;2023-08-12T10:33:34;7.18;;;2.42;;
11614;SDS011;5863;52.832;4.758;2023-08-12T10:36:02;6.20;;;2.40;;
11614;SDS011;5863;52.832;4.758;2023-08-12T10:38:30;9.35;;;3.00;;
11614;SDS011;5863;52.832;4.758;2023-08-12T10:43:49;8.20;;;2.60;;
11614;SDS011;5863;52.832;4.758;2023-08-12T10:46:27;8.48;;;2.53;;
11614;SDS011;5863;52.832;4.758;2023-08-12T10:48:56;9.23;;;3.03;;
11614;SDS011;5863;52.832;4.758;2023-08-12T10:51:41;7.65;;;2.47;;
11614;SDS011;5863;52.832;4.758;2023-08-12T10:54:20;5.93;;;2.53;;
11614;SDS011;5863;52.832;4.758;2023-08-12T10:57:03;10.30;;;2.97;;
11614;SDS011;5863;52.832;4.758;2023-08-12T10:59:51;7.90;;;2.95;;
11614;SDS011;5863;52.832;4.758;2023-08-12T11:02:21;9.30;;;2.42;;
11614;SDS011;5863;52.832;4.758;2023-08-12T11:04:52;7.70;;;2.50;;
11614;SDS011;5863;52.832;4.758;2023-08-12T11:07:20;11.95;;;2.97;;
11614;SDS011;5863;52.832;4.758;2023-08-12T11:09:50;11.20;;;3.15;;
11614;SDS011;5863;52.832;4.758;2023-08-12T11:12:21;11.27;;;3.00;;
11614;SDS011;5863;52.832;4.758;2023-08-12T11:14:54;10.57;;;3.13;;
11614;SDS011;5863;52.832;4.758;2023-08-12T11:17:29;8.63;;;3.10;;
11614;SDS011;5863;52.832;4.758;2023-08-12T11:19:58;9.77;;;2.85;;
11614;SDS011;5863;52.832;4.758;2023-08-12T11:22:25;12.07;;;3.40;;
11614;SDS011;5863;52.832;4.758;2023-08-12T11:24:52;8.35;;;2.50;;
11614;SDS011;5863;52.832;4.758;2023-08-12T11:27:19;9.82;;;3.10;;
11614;SDS011;5863;52.832;4.758;2023-08-12T11:29:46;12.13;;;3.60;;
11614;SDS011;5863;52.832;4.758;2023-08-12T11:32:12;10.00;;;3.00;;
11614;SDS011;5863;52.832;4.758;2023-08-12T11:34:41;10.65;;;2.80;;
11614;SDS011;5863;52.832;4.758;2023-08-12T11:37:07;8.45;;;2.90;;
11614;SDS011;5863;52.832;4.758;2023-08-12T11:39:34;8.65;;;3.13;;
11614;SDS011;5863;52.832;4.758;2023-08-12T11:42:01;10.70;;;2.83;;
11614;SDS011;5863;52.832;4.758;2023-08-12T11:44:28;9.95;;;3.30;;
11614;SDS011;5863;52.832;4.758;2023-08-12T11:46:55;13.07;;;3.10;;
11614;SDS011;5863;52.832;4.758;2023-08-12T11:49:22;9.90;;;3.33;;
11614;SDS011;5863;52.832;4.758;2023-08-12T11:51:50;7.60;;;2.63;;
11614;SDS011;5863;52.832;4.758;2023-08-12T11:54:16;11.10;;;2.95;;
11614;SDS011;5863;52.832;4.758;2023-08-12T11:56:45;7.47;;;2.85;;
11614;SDS011;5863;52.832;4.758;2023-08-12T11:59:12;8.75;;;3.03;;
11614;SDS011;5863;52.832;4.758;2023-08-12T12:01:39;8.65;;;2.88;;
11614;SDS011;5863;52.832;4.758;2023-08-12T12:04:06;8.98;;;3.50;;
11614;SDS011;5863;52.832;4.758;2023-08-12T12:06:33;11.65;;;3.15;;
11614;SDS011;5863;52.832;4.758;2023-08-12T12:09:05;8.68;;;2.80;;
11614;SDS011;5863;52.832;4.758;2023-08-12T12:11:34;7.85;;;3.00;;
11614;SDS011;5863;52.832;4.758;2023-08-12T12:14:02;12.60;;;3.38;;
11614;SDS011;5863;52.832;4.758;2023-08-12T12:16:36;10.65;;;3.30;;
11614;SDS011;5863;52.832;4.758;2023-08-12T12:19:05;9.02;;;3.38;;
11614;SDS011;5863;52.832;4.758;2023-08-12T12:21:38;8.15;;;2.97;;
11614;SDS011;5863;52.832;4.758;2023-08-12T12:24:07;9.02;;;2.90;;
11614;SDS011;5863;52.832;4.758;2023-08-12T12:26:35;8.75;;;2.90;;
11614;SDS011;5863;52.832;4.758;2023-08-12T12:29:02;12.57;;;2.90;;
11614;SDS011;5863;52.832;4.758;2023-08-12T12:31:31;12.48;;;3.20;;
11614;SDS011;5863;52.832;4.758;2023-08-12T12:33:59;11.52;;;3.35;;
11614;SDS011;5863;52.832;4.758;2023-08-12T12:36:25;12.15;;;3.67;;
11614;SDS011;5863;52.832;4.758;2023-08-12T12:38:52;12.70;;;3.38;;
11614;SDS011;5863;52.832;4.758;2023-08-12T12:41:20;17.67;;;3.40;;
11614;SDS011;5863;52.832;4.758;2023-08-12T12:43:47;9.13;;;3.17;;
11614;SDS011;5863;52.832;4.758;2023-08-12T12:46:14;9.63;;;3.25;;
11614;SDS011;5863;52.832;4.758;2023-08-12T12:48:41;13.73;;;4.15;;
11614;SDS011;5863;52.832;4.758;2023-08-12T12:51:08;11.65;;;3.58;;
11614;SDS011;5863;52.832;4.758;2023-08-12T12:53:34;9.57;;;3.55;;
11614;SDS011;5863;52.832;4.758;2023-08-12T12:56:01;9.50;;;3.00;;
11614;SDS011;5863;52.832;4.758;2023-08-12T12:58:30;8.75;;;3.53;;
11614;SDS011;5863;52.832;4.758;2023-08-12T13:00:58;10.85;;;3.63;;
11614;SDS011;5863;52.832;4.758;2023-08-12T13:03:25;14.85;;;3.58;;
11614;SDS011;5863;52.832;4.758;2023-08-12T13:05:51;10.20;;;3.97;;
11614;SDS011;5863;52.832;4.758;2023-08-12T13:08:18;11.52;;;3.13;;
11614;SDS011;5863;52.832;4.758;2023-08-12T13:10:45;16.05;;;3.42;;
11614;SDS011;5863;52.832;4.758;2023-08-12T13:13:12;12.65;;;4.10;;
11614;SDS011;5863;52.832;4.758;2023-08-12T13:15:41;37.42;;;8.80;;
11614;SDS011;5863;52.832;4.758;2023-08-12T13:18:08;44.53;;;10.15;;
11614;SDS011;5863;52.832;4.758;2023-08-12T13:20:35;20.02;;;6.05;;
11614;SDS011;5863;52.832;4.758;2023-08-12T13:23:02;14.65;;;3.95;;
11614;SDS011;5863;52.832;4.758;2023-08-12T13:25:31;10.18;;;3.90;;
11614;SDS011;5863;52.832;4.758;2023-08-12T13:27:59;9.23;;;3.40;;
11614;SDS011;5863;52.832;4.758;2023-08-12T13:30:26;11.85;;;4.60;;
11614;SDS011;5863;52.832;4.758;2023-08-12T13:32:54;8.27;;;3.45;;
11614;SDS011;5863;52.832;4.758;2023-08-12T13:35:21;13.25;;;3.65;;
11614;SDS011;5863;52.832;4.758;2023-08-12T13:37:49;8.73;;;3.00;;
11614;SDS011;5863;52.832;4.758;2023-08-12T13:40:16;10.23;;;3.30;;
11614;SDS011;5863;52.832;4.758;2023-08-12T13:42:43;11.50;;;3.42;;
11614;SDS011;5863;52.832;4.758;2023-08-12T13:45:11;12.82;;;3.47;;
11614;SDS011;5863;52.832;4.758;2023-08-12T13:47:37;11.13;;;3.45;;
11614;SDS011;5863;52.832;4.758;2023-08-12T13:50:06;12.38;;;3.85;;
11614;SDS011;5863;52.832;4.758;2023-08-12T13:52:33;10.65;;;3.60;;
11614;SDS011;5863;52.832;4.758;2023-08-12T13:55:00;10.27;;;3.38;;
11614;SDS011;5863;52.832;4.758;2023-08-12T13:57:27;13.20;;;3.67;;
11614;SDS011;5863;52.832;4.758;2023-08-12T13:59:54;11.30;;;4.38;;
11614;SDS011;5863;52.832;4.758;2023-08-12T14:02:20;8.43;;;3.45;;
11614;SDS011;5863;52.832;4.758;2023-08-12T14:04:48;10.27;;;3.88;;
11614;SDS011;5863;52.832;4.758;2023-08-12T14:07:16;8.32;;;3.58;;
11614;SDS011;5863;52.832;4.758;2023-08-12T14:09:45;12.10;;;4.07;;
11614;SDS011;5863;52.832;4.758;2023-08-12T14:12:12;14.50;;;3.97;;
11614;SDS011;5863;52.832;4.758;2023-08-12T14:14:38;10.02;;;3.97;;
11614;SDS011;5863;52.832;4.758;2023-08-12T14:17:05;12.45;;;3.80;;
11614;SDS011;5863;52.832;4.758;2023-08-12T14:19:32;11.07;;;4.10;;
11614;SDS011;5863;52.832;4.758;2023-08-12T14:21:58;12.65;;;3.55;;
11614;SDS011;5863;52.832;4.758;2023-08-12T14:24:27;12.52;;;4.00;;
11614;SDS011;5863;52.832;4.758;2023-08-12T14:26:53;12.38;;;3.95;;
11614;SDS011;5863;52.832;4.758;2023-08-12T14:29:20;12.75;;;3.60;;
11614;SDS011;5863;52.832;4.758;2023-08-12T14:31:47;10.40;;;3.35;;
11614;SDS011;5863;52.832;4.758;2023-08-12T14:34:13;12.10;;;3.50;;
11614;SDS011;5863;52.832;4.758;2023-08-12T14:36:40;10.63;;;3.63;;
11614;SDS011;5863;52.832;4.758;2023-08-12T14:39:07;10.70;;;3.45;;
11614;SDS011;5863;52.832;4.758;2023-08-12T14:41:35;11.68;;;3.53;;
11614;SDS011;5863;52.832;4.758;2023-08-12T14:44:01;12.63;;;3.20;;
11614;SDS011;5863;52.832;4.758;2023-08-12T14:46:28;8.30;;;3.60;;
11614;SDS011;5863;52.832;4.758;2023-08-12T14:48:55;10.57;;;3.17;;
11614;SDS011;5863;52.832;4.758;2023-08-12T14:51:21;10.93;;;3.30;;
11614;SDS011;5863;52.832;4.758;2023-08-12T14:53:48;9.80;;;3.22;;
11614;SDS011;5863;52.832;4.758;2023-08-12T14:56:15;10.95;;;3.38;;
11614;SDS011;5863;52.832;4.758;2023-08-12T14:58:44;9.18;;;3.28;;
11614;SDS011;5863;52.832;4.758;2023-08-12T15:01:10;8.95;;;3.50;;
11614;SDS011;5863;52.832;4.758;2023-08-12T15:03:38;14.10;;;3.58;;